Terminal Aerodrome Forecast
Issued by NWS Billings, MT

Home | Current Version | Previous Version | Text Only | Print | Product List | Glossary On
Versions: 1 2 3 4 5 6 7 8 9 10 11 12 13 14 15 16
000
FTUS45 KBYZ 232340
TAFMLS
TAF
KMLS 232340Z 2400/2424 05010KT P6SM VCSH SCT015 SCT025 OVC040
     FM240600 06007KT P6SM SCT025 BKN050
     FM241300 10009KT P6SM SCT025 BKN090
     FM242000 VRB05KT P6SM SCT050 SCT120=

USA.gov is the U.S. government's official web portal to all federal, state and local government web resources and services.